sensor_id;sensor_type;location;lat;lon;timestamp;temperature;humidity
64634;DHT22;51043;52.406;9.690;2023-12-20T00:00:39;6.70;99.90
64634;DHT22;51043;52.406;9.690;2023-12-20T00:03:08;6.70;99.90
64634;DHT22;51043;52.406;9.690;2023-12-20T00:05:36;6.70;99.90
64634;DHT22;51043;52.406;9.690;2023-12-20T00:08:08;6.60;99.90
64634;DHT22;51043;52.406;9.690;2023-12-20T00:10:37;6.60;99.90
64634;DHT22;51043;52.406;9.690;2023-12-20T00:13:06;6.50;99.90
64634;DHT22;51043;52.406;9.690;2023-12-20T00:15:35;6.50;99.90
64634;DHT22;51043;52.406;9.690;2023-12-20T00:18:04;6.50;99.90
64634;DHT22;51043;52.406;9.690;2023-12-20T00:20:33;6.40;99.90
64634;DHT22;51043;52.406;9.690;2023-12-20T00:23:01;6.40;99.90
64634;DHT22;51043;52.406;9.690;2023-12-20T00:25:31;6.40;99.90
64634;DHT22;51043;52.406;9.690;2023-12-20T00:28:00;6.30;99.90
64634;DHT22;51043;52.406;9.690;2023-12-20T00:30:29;6.30;99.90
64634;DHT22;51043;52.406;9.690;2023-12-20T00:32:58;6.30;99.90
64634;DHT22;51043;52.406;9.690;2023-12-20T00:35:27;6.20;99.90
64634;DHT22;51043;52.406;9.690;2023-12-20T00:37:56;6.20;99.90
64634;DHT22;51043;52.406;9.690;2023-12-20T00:40:25;6.20;99.90
64634;DHT22;51043;52.406;9.690;2023-12-20T00:42:53;6.10;99.90
64634;DHT22;51043;52.406;9.690;2023-12-20T00:45:23;6.10;99.90
64634;DHT22;51043;52.406;9.690;2023-12-20T00:47:52;6.10;99.90
64634;DHT22;51043;52.406;9.690;2023-12-20T00:50:20;6.10;99.90
64634;DHT22;51043;52.406;9.690;2023-12-20T00:52:49;6.10;99.90
64634;DHT22;51043;52.406;9.690;2023-12-20T00:55:17;6.00;99.90
64634;DHT22;51043;52.406;9.690;2023-12-20T00:57:45;6.00;99.90
64634;DHT22;51043;52.406;9.690;2023-12-20T01:00:14;6.00;99.90
64634;DHT22;51043;52.406;9.690;2023-12-20T01:02:44;6.00;99.90
64634;DHT22;51043;52.406;9.690;2023-12-20T01:05:14;6.00;99.90
64634;DHT22;51043;52.406;9.690;2023-12-20T01:07:42;6.00;99.90
64634;DHT22;51043;52.406;9.690;2023-12-20T01:10:10;6.00;99.90
64634;DHT22;51043;52.406;9.690;2023-12-20T01:12:38;5.90;99.90
64634;DHT22;51043;52.406;9.690;2023-12-20T01:15:08;5.90;99.90
64634;DHT22;51043;52.406;9.690;2023-12-20T01:17:37;5.90;99.90
64634;DHT22;51043;52.406;9.690;2023-12-20T01:20:09;5.90;99.90
64634;DHT22;51043;52.406;9.690;2023-12-20T01:22:37;5.90;99.90
64634;DHT22;51043;52.406;9.690;2023-12-20T01:25:07;5.90;99.90
64634;DHT22;51043;52.406;9.690;2023-12-20T01:27:35;5.90;99.90
64634;DHT22;51043;52.406;9.690;2023-12-20T01:30:04;5.90;99.90
64634;DHT22;51043;52.406;9.690;2023-12-20T01:32:32;5.90;99.90
64634;DHT22;51043;52.406;9.690;2023-12-20T01:35:00;6.00;99.90
64634;DHT22;51043;52.406;9.690;2023-12-20T01:37:29;6.00;99.90
64634;DHT22;51043;52.406;9.690;2023-12-20T01:39:57;6.00;99.90
64634;DHT22;51043;52.406;9.690;2023-12-20T01:42:26;6.00;99.90
64634;DHT22;51043;52.406;9.690;2023-12-20T01:44:54;6.00;99.90
64634;DHT22;51043;52.406;9.690;2023-12-20T01:47:22;5.90;99.90
64634;DHT22;51043;52.406;9.690;2023-12-20T01:49:52;5.90;99.90
64634;DHT22;51043;52.406;9.690;2023-12-20T01:52:23;5.90;99.90
64634;DHT22;51043;52.406;9.690;2023-12-20T01:54:53;5.80;99.90
64634;DHT22;51043;52.406;9.690;2023-12-20T01:57:28;5.80;99.90
64634;DHT22;51043;52.406;9.690;2023-12-20T01:59:56;5.80;99.90
64634;DHT22;51043;52.406;9.690;2023-12-20T02:02:26;5.70;99.90
64634;DHT22;51043;52.406;9.690;2023-12-20T02:04:55;5.70;99.90
64634;DHT22;51043;52.406;9.690;2023-12-20T02:07:25;5.70;99.90
64634;DHT22;51043;52.406;9.690;2023-12-20T02:09:58;5.70;99.90
64634;DHT22;51043;52.406;9.690;2023-12-20T02:12:27;5.70;99.90
64634;DHT22;51043;52.406;9.690;2023-12-20T02:14:55;5.70;99.90
64634;DHT22;51043;52.406;9.690;2023-12-20T02:17:24;5.70;99.90
64634;DHT22;51043;52.406;9.690;2023-12-20T02:19:54;5.60;99.90
64634;DHT22;51043;52.406;9.690;2023-12-20T02:22:26;5.70;99.90
64634;DHT22;51043;52.406;9.690;2023-12-20T02:24:54;5.60;99.90
64634;DHT22;51043;52.406;9.690;2023-12-20T02:27:23;5.60;99.90
64634;DHT22;51043;52.406;9.690;2023-12-20T02:29:51;5.70;99.90
64634;DHT22;51043;52.406;9.690;2023-12-20T02:32:19;5.70;99.90
64634;DHT22;51043;52.406;9.690;2023-12-20T02:34:48;5.70;99.90
64634;DHT22;51043;52.406;9.690;2023-12-20T02:37:16;5.70;99.90
64634;DHT22;51043;52.406;9.690;2023-12-20T02:39:45;5.60;99.90
64634;DHT22;51043;52.406;9.690;2023-12-20T02:42:14;5.60;99.90
64634;DHT22;51043;52.406;9.690;2023-12-20T02:44:42;5.50;99.90
64634;DHT22;51043;52.406;9.690;2023-12-20T02:47:11;5.50;99.90
64634;DHT22;51043;52.406;9.690;2023-12-20T02:49:40;5.40;99.90
64634;DHT22;51043;52.406;9.690;2023-12-20T02:52:08;5.40;99.90
64634;DHT22;51043;52.406;9.690;2023-12-20T02:54:37;5.40;99.90
64634;DHT22;51043;52.406;9.690;2023-12-20T02:57:08;5.40;99.90
64634;DHT22;51043;52.406;9.690;2023-12-20T02:59:38;5.30;99.90
64634;DHT22;51043;52.406;9.690;2023-12-20T03:02:06;5.30;99.90
64634;DHT22;51043;52.406;9.690;2023-12-20T03:04:38;5.30;99.90
64634;DHT22;51043;52.406;9.690;2023-12-20T03:07:06;5.30;99.90
64634;DHT22;51043;52.406;9.690;2023-12-20T03:09:36;5.20;99.90
64634;DHT22;51043;52.406;9.690;2023-12-20T03:12:10;5.30;99.90
64634;DHT22;51043;52.406;9.690;2023-12-20T03:14:38;5.30;99.90
64634;DHT22;51043;52.406;9.690;2023-12-20T03:17:05;5.20;99.90
64634;DHT22;51043;52.406;9.690;2023-12-20T03:19:33;5.20;99.90
64634;DHT22;51043;52.406;9.690;2023-12-20T03:22:03;5.20;99.90
64634;DHT22;51043;52.406;9.690;2023-12-20T03:24:31;5.10;99.90
64634;DHT22;51043;52.406;9.690;2023-12-20T03:26:59;5.20;99.90
64634;DHT22;51043;52.406;9.690;2023-12-20T03:29:28;5.10;99.90
64634;DHT22;51043;52.406;9.690;2023-12-20T03:31:56;5.00;99.90
64634;DHT22;51043;52.406;9.690;2023-12-20T03:34:26;5.10;99.90
64634;DHT22;51043;52.406;9.690;2023-12-20T03:36:57;5.00;99.90
64634;DHT22;51043;52.406;9.690;2023-12-20T03:39:25;5.00;99.90
64634;DHT22;51043;52.406;9.690;2023-12-20T03:41:53;5.10;99.90
64634;DHT22;51043;52.406;9.690;2023-12-20T03:44:21;5.00;99.90
64634;DHT22;51043;52.406;9.690;2023-12-20T03:46:50;5.00;99.90
64634;DHT22;51043;52.406;9.690;2023-12-20T03:49:18;5.10;99.90
64634;DHT22;51043;52.406;9.690;2023-12-20T03:51:46;5.10;99.90
64634;DHT22;51043;52.406;9.690;2023-12-20T03:54:14;5.00;99.90
64634;DHT22;51043;52.406;9.690;2023-12-20T03:56:42;5.00;99.90
64634;DHT22;51043;52.406;9.690;2023-12-20T03:59:10;5.00;99.90
64634;DHT22;51043;52.406;9.690;2023-12-20T04:01:38;5.10;99.90
64634;DHT22;51043;52.406;9.690;2023-12-20T04:04:13;5.00;99.90
64634;DHT22;51043;52.406;9.690;2023-12-20T04:06:41;5.00;99.90
64634;DHT22;51043;52.406;9.690;2023-12-20T04:09:10;5.10;99.90
64634;DHT22;51043;52.406;9.690;2023-12-20T04:11:38;5.10;99.90
64634;DHT22;51043;52.406;9.690;2023-12-20T04:14:07;5.10;99.90
64634;DHT22;51043;52.406;9.690;2023-12-20T04:16:36;5.10;99.90
64634;DHT22;51043;52.406;9.690;2023-12-20T04:19:05;5.20;99.90
64634;DHT22;51043;52.406;9.690;2023-12-20T04:21:35;5.20;99.90
64634;DHT22;51043;52.406;9.690;2023-12-20T04:24:03;5.20;99.90
64634;DHT22;51043;52.406;9.690;2023-12-20T04:26:32;5.30;99.90
64634;DHT22;51043;52.406;9.690;2023-12-20T04:29:00;5.30;99.90
64634;DHT22;51043;52.406;9.690;2023-12-20T04:31:28;5.20;99.90
64634;DHT22;51043;52.406;9.690;2023-12-20T04:33:56;5.30;99.90
64634;DHT22;51043;52.406;9.690;2023-12-20T04:36:24;5.30;99.90
64634;DHT22;51043;52.406;9.690;2023-12-20T04:38:58;5.40;99.90
64634;DHT22;51043;52.406;9.690;2023-12-20T04:41:27;5.50;99.90
64634;DHT22;51043;52.406;9.690;2023-12-20T04:43:55;5.50;99.90
64634;DHT22;51043;52.406;9.690;2023-12-20T04:46:23;5.50;99.90
64634;DHT22;51043;52.406;9.690;2023-12-20T04:48:51;5.60;99.90
64634;DHT22;51043;52.406;9.690;2023-12-20T04:51:19;5.50;99.90
64634;DHT22;51043;52.406;9.690;2023-12-20T04:53:48;5.50;99.90
64634;DHT22;51043;52.406;9.690;2023-12-20T04:56:19;5.50;99.90
64634;DHT22;51043;52.406;9.690;2023-12-20T04:58:47;5.60;99.90
64634;DHT22;51043;52.406;9.690;2023-12-20T05:01:17;5.50;99.90
64634;DHT22;51043;52.406;9.690;2023-12-20T05:03:45;5.60;99.90
64634;DHT22;51043;52.406;9.690;2023-12-20T05:06:13;5.60;99.90
64634;DHT22;51043;52.406;9.690;2023-12-20T05:08:41;5.60;99.90
64634;DHT22;51043;52.406;9.690;2023-12-20T05:11:10;5.70;99.90
64634;DHT22;51043;52.406;9.690;2023-12-20T05:13:42;5.70;99.90
64634;DHT22;51043;52.406;9.690;2023-12-20T05:16:11;5.70;99.90
64634;DHT22;51043;52.406;9.690;2023-12-20T05:18:40;5.70;99.90
64634;DHT22;51043;52.406;9.690;2023-12-20T05:21:10;5.80;99.90
64634;DHT22;51043;52.406;9.690;2023-12-20T05:23:38;5.80;99.90
64634;DHT22;51043;52.406;9.690;2023-12-20T05:26:06;5.80;99.90
64634;DHT22;51043;52.406;9.690;2023-12-20T05:28:34;5.80;99.90
64634;DHT22;51043;52.406;9.690;2023-12-20T05:31:03;5.80;99.90
64634;DHT22;51043;52.406;9.690;2023-12-20T05:33:34;5.70;99.90
64634;DHT22;51043;52.406;9.690;2023-12-20T05:36:03;5.60;99.90
64634;DHT22;51043;52.406;9.690;2023-12-20T05:38:32;5.60;99.90
64634;DHT22;51043;52.406;9.690;2023-12-20T05:41:00;5.60;99.90
64634;DHT22;51043;52.406;9.690;2023-12-20T05:43:28;5.60;99.90
64634;DHT22;51043;52.406;9.690;2023-12-20T05:45:56;5.60;99.90
64634;DHT22;51043;52.406;9.690;2023-12-20T05:48:26;5.60;99.90
64634;DHT22;51043;52.406;9.690;2023-12-20T05:50:54;5.60;99.90
64634;DHT22;51043;52.406;9.690;2023-12-20T05:53:25;5.60;99.90
64634;DHT22;51043;52.406;9.690;2023-12-20T05:55:53;5.70;99.90
64634;DHT22;51043;52.406;9.690;2023-12-20T05:58:21;5.70;99.90
64634;DHT22;51043;52.406;9.690;2023-12-20T06:00:49;5.70;99.90
64634;DHT22;51043;52.406;9.690;2023-12-20T06:03:17;5.60;99.90
64634;DHT22;51043;52.406;9.690;2023-12-20T06:05:46;5.60;99.90
64634;DHT22;51043;52.406;9.690;2023-12-20T06:08:14;5.70;99.90
64634;DHT22;51043;52.406;9.690;2023-12-20T06:10:42;5.70;99.90
64634;DHT22;51043;52.406;9.690;2023-12-20T06:13:13;5.70;99.90
64634;DHT22;51043;52.406;9.690;2023-12-20T06:15:41;5.70;99.90
64634;DHT22;51043;52.406;9.690;2023-12-20T06:18:10;5.60;99.90
64634;DHT22;51043;52.406;9.690;2023-12-20T06:20:41;5.60;99.90
64634;DHT22;51043;52.406;9.690;2023-12-20T06:23:13;5.60;99.90
64634;DHT22;51043;52.406;9.690;2023-12-20T06:25:42;5.60;99.90
64634;DHT22;51043;52.406;9.690;2023-12-20T06:28:10;5.60;99.90
64634;DHT22;51043;52.406;9.690;2023-12-20T06:30:42;5.70;99.90
64634;DHT22;51043;52.406;9.690;2023-12-20T06:33:10;5.70;99.90
64634;DHT22;51043;52.406;9.690;2023-12-20T06:35:39;5.70;99.90
64634;DHT22;51043;52.406;9.690;2023-12-20T06:38:07;5.70;99.90
64634;DHT22;51043;52.406;9.690;2023-12-20T06:40:37;5.70;99.90
64634;DHT22;51043;52.406;9.690;2023-12-20T06:43:06;5.70;99.90
64634;DHT22;51043;52.406;9.690;2023-12-20T06:45:34;5.70;99.90
64634;DHT22;51043;52.406;9.690;2023-12-20T06:48:03;5.70;99.90
64634;DHT22;51043;52.406;9.690;2023-12-20T06:50:31;5.70;99.90
64634;DHT22;51043;52.406;9.690;2023-12-20T06:52:59;5.60;99.90
64634;DHT22;51043;52.406;9.690;2023-12-20T06:55:34;5.60;99.90
64634;DHT22;51043;52.406;9.690;2023-12-20T06:58:04;5.60;99.90
64634;DHT22;51043;52.406;9.690;2023-12-20T07:00:33;5.60;99.90
64634;DHT22;51043;52.406;9.690;2023-12-20T07:03:01;5.60;99.90
64634;DHT22;51043;52.406;9.690;2023-12-20T07:05:29;5.50;99.90
64634;DHT22;51043;52.406;9.690;2023-12-20T07:07:57;5.50;99.90
64634;DHT22;51043;52.406;9.690;2023-12-20T07:10:27;5.40;99.90
64634;DHT22;51043;52.406;9.690;2023-12-20T07:12:55;5.40;99.90
64634;DHT22;51043;52.406;9.690;2023-12-20T07:15:26;5.40;99.90
64634;DHT22;51043;52.406;9.690;2023-12-20T07:17:56;5.30;99.90
64634;DHT22;51043;52.406;9.690;2023-12-20T07:20:27;5.30;99.90
64634;DHT22;51043;52.406;9.690;2023-12-20T07:22:55;5.30;99.90
64634;DHT22;51043;52.406;9.690;2023-12-20T07:25:25;5.40;99.90
64634;DHT22;51043;52.406;9.690;2023-12-20T07:27:54;5.30;99.90
64634;DHT22;51043;52.406;9.690;2023-12-20T07:30:22;5.40;99.90
64634;DHT22;51043;52.406;9.690;2023-12-20T07:32:51;5.50;99.90
64634;DHT22;51043;52.406;9.690;2023-12-20T07:35:20;5.60;99.90
64634;DHT22;51043;52.406;9.690;2023-12-20T07:37:48;5.60;99.90
64634;DHT22;51043;52.406;9.690;2023-12-20T07:40:16;5.60;99.90
64634;DHT22;51043;52.406;9.690;2023-12-20T07:42:44;5.60;99.90
64634;DHT22;51043;52.406;9.690;2023-12-20T07:45:12;5.60;99.90
64634;DHT22;51043;52.406;9.690;2023-12-20T07:47:41;5.60;99.90
64634;DHT22;51043;52.406;9.690;2023-12-20T07:50:11;5.60;99.90
64634;DHT22;51043;52.406;9.690;2023-12-20T07:52:39;5.60;99.90
64634;DHT22;51043;52.406;9.690;2023-12-20T07:55:08;5.60;99.90
64634;DHT22;51043;52.406;9.690;2023-12-20T07:57:36;5.50;99.90
64634;DHT22;51043;52.406;9.690;2023-12-20T08:00:05;5.40;99.90
64634;DHT22;51043;52.406;9.690;2023-12-20T08:02:34;5.40;99.90
64634;DHT22;51043;52.406;9.690;2023-12-20T08:05:02;5.30;99.90
64634;DHT22;51043;52.406;9.690;2023-12-20T08:07:32;5.30;99.90
64634;DHT22;51043;52.406;9.690;2023-12-20T08:10:00;5.40;99.90
64634;DHT22;51043;52.406;9.690;2023-12-20T08:12:28;5.50;99.90
64634;DHT22;51043;52.406;9.690;2023-12-20T08:14:56;5.50;99.90
64634;DHT22;51043;52.406;9.690;2023-12-20T08:17:24;5.50;99.90
64634;DHT22;51043;52.406;9.690;2023-12-20T08:19:52;5.50;99.90
64634;DHT22;51043;52.406;9.690;2023-12-20T08:22:22;5.60;99.90
64634;DHT22;51043;52.406;9.690;2023-12-20T08:24:52;5.60;99.90
64634;DHT22;51043;52.406;9.690;2023-12-20T08:27:22;5.60;99.90
64634;DHT22;51043;52.406;9.690;2023-12-20T08:29:51;5.70;99.90
64634;DHT22;51043;52.406;9.690;2023-12-20T08:32:19;5.80;99.90
64634;DHT22;51043;52.406;9.690;2023-12-20T08:34:48;5.80;99.90
64634;DHT22;51043;52.406;9.690;2023-12-20T08:37:18;5.80;99.90
64634;DHT22;51043;52.406;9.690;2023-12-20T08:39:46;5.80;99.90
64634;DHT22;51043;52.406;9.690;2023-12-20T08:42:17;5.90;99.90
64634;DHT22;51043;52.406;9.690;2023-12-20T08:44:46;5.90;99.90
64634;DHT22;51043;52.406;9.690;2023-12-20T08:47:15;5.90;99.90
64634;DHT22;51043;52.406;9.690;2023-12-20T08:49:44;6.00;99.90
64634;DHT22;51043;52.406;9.690;2023-12-20T08:52:13;6.00;99.90
64634;DHT22;51043;52.406;9.690;2023-12-20T08:54:43;6.00;99.90
64634;DHT22;51043;52.406;9.690;2023-12-20T08:57:12;6.00;99.90
64634;DHT22;51043;52.406;9.690;2023-12-20T08:59:42;6.00;99.90
64634;DHT22;51043;52.406;9.690;2023-12-20T09:02:10;6.10;99.90
64634;DHT22;51043;52.406;9.690;2023-12-20T09:04:38;6.10;99.90
64634;DHT22;51043;52.406;9.690;2023-12-20T09:07:07;6.20;99.90
64634;DHT22;51043;52.406;9.690;2023-12-20T09:09:48;6.30;99.90
64634;DHT22;51043;52.406;9.690;2023-12-20T09:12:17;6.30;99.90
64634;DHT22;51043;52.406;9.690;2023-12-20T09:14:48;6.30;99.90
64634;DHT22;51043;52.406;9.690;2023-12-20T09:17:17;6.30;99.90
64634;DHT22;51043;52.406;9.690;2023-12-20T09:19:45;6.30;99.90
64634;DHT22;51043;52.406;9.690;2023-12-20T09:22:14;6.40;99.90
64634;DHT22;51043;52.406;9.690;2023-12-20T09:24:43;6.50;99.90
64634;DHT22;51043;52.406;9.690;2023-12-20T09:27:12;6.40;99.90
64634;DHT22;51043;52.406;9.690;2023-12-20T09:29:42;6.40;99.90
64634;DHT22;51043;52.406;9.690;2023-12-20T09:32:12;6.40;99.90
64634;DHT22;51043;52.406;9.690;2023-12-20T09:34:44;6.40;99.90
64634;DHT22;51043;52.406;9.690;2023-12-20T09:37:15;6.50;99.90
64634;DHT22;51043;52.406;9.690;2023-12-20T09:39:43;6.50;99.90
64634;DHT22;51043;52.406;9.690;2023-12-20T09:42:19;6.50;99.90
64634;DHT22;51043;52.406;9.690;2023-12-20T09:44:49;6.50;99.90
64634;DHT22;51043;52.406;9.690;2023-12-20T09:47:20;6.60;99.90
64634;DHT22;51043;52.406;9.690;2023-12-20T09:49:51;6.70;99.90
64634;DHT22;51043;52.406;9.690;2023-12-20T09:52:20;6.80;99.90
64634;DHT22;51043;52.406;9.690;2023-12-20T09:54:52;6.90;99.90
64634;DHT22;51043;52.406;9.690;2023-12-20T09:57:22;7.00;99.90
64634;DHT22;51043;52.406;9.690;2023-12-20T09:59:52;7.00;99.90
64634;DHT22;51043;52.406;9.690;2023-12-20T10:02:25;6.90;99.90
64634;DHT22;51043;52.406;9.690;2023-12-20T10:04:54;6.90;99.90
64634;DHT22;51043;52.406;9.690;2023-12-20T10:07:22;7.00;99.90
64634;DHT22;51043;52.406;9.690;2023-12-20T10:09:54;7.10;99.90
64634;DHT22;51043;52.406;9.690;2023-12-20T10:12:24;7.10;99.90
64634;DHT22;51043;52.406;9.690;2023-12-20T10:14:54;7.10;99.90
64634;DHT22;51043;52.406;9.690;2023-12-20T10:17:24;7.10;99.90
64634;DHT22;51043;52.406;9.690;2023-12-20T10:19:57;7.10;99.90
64634;DHT22;51043;52.406;9.690;2023-12-20T10:22:29;7.10;99.90
64634;DHT22;51043;52.406;9.690;2023-12-20T10:24:57;7.10;99.90
64634;DHT22;51043;52.406;9.690;2023-12-20T10:27:25;7.10;99.90
64634;DHT22;51043;52.406;9.690;2023-12-20T10:29:55;7.10;99.90
64634;DHT22;51043;52.406;9.690;2023-12-20T10:32:25;7.10;99.90
64634;DHT22;51043;52.406;9.690;2023-12-20T10:34:55;7.10;99.90
64634;DHT22;51043;52.406;9.690;2023-12-20T10:37:23;7.00;99.90
64634;DHT22;51043;52.406;9.690;2023-12-20T10:39:52;7.00;99.90
64634;DHT22;51043;52.406;9.690;2023-12-20T10:42:25;6.90;99.90
64634;DHT22;51043;52.406;9.690;2023-12-20T10:44:54;6.80;99.90
64634;DHT22;51043;52.406;9.690;2023-12-20T10:47:25;6.70;99.90
64634;DHT22;51043;52.406;9.690;2023-12-20T10:49:53;6.60;99.90
64634;DHT22;51043;52.406;9.690;2023-12-20T10:52:23;6.50;99.90
64634;DHT22;51043;52.406;9.690;2023-12-20T10:54:52;6.60;99.90
64634;DHT22;51043;52.406;9.690;2023-12-20T10:57:21;6.60;99.90
64634;DHT22;51043;52.406;9.690;2023-12-20T10:59:52;6.70;99.90
64634;DHT22;51043;52.406;9.690;2023-12-20T11:02:23;6.80;99.90
64634;DHT22;51043;52.406;9.690;2023-12-20T11:04:59;6.90;99.90
64634;DHT22;51043;52.406;9.690;2023-12-20T11:07:33;6.90;99.90
64634;DHT22;51043;52.406;9.690;2023-12-20T11:10:10;6.90;99.90
64634;DHT22;51043;52.406;9.690;2023-12-20T11:12:47;6.80;99.90
64634;DHT22;51043;52.406;9.690;2023-12-20T11:15:17;6.80;99.90
64634;DHT22;51043;52.406;9.690;2023-12-20T11:17:54;6.70;99.90
64634;DHT22;51043;52.406;9.690;2023-12-20T11:20:24;6.60;99.90
64634;DHT22;51043;52.406;9.690;2023-12-20T11:22:53;6.50;99.90
64634;DHT22;51043;52.406;9.690;2023-12-20T11:25:21;6.40;99.90
64634;DHT22;51043;52.406;9.690;2023-12-20T11:28:08;6.40;99.90
64634;DHT22;51043;52.406;9.690;2023-12-20T11:30:46;6.40;99.90
64634;DHT22;51043;52.406;9.690;2023-12-20T11:33:21;6.30;99.90
64634;DHT22;51043;52.406;9.690;2023-12-20T11:35:51;6.30;99.90
64634;DHT22;51043;52.406;9.690;2023-12-20T11:38:20;6.30;99.90
64634;DHT22;51043;52.406;9.690;2023-12-20T11:40:49;6.20;99.90
64634;DHT22;51043;52.406;9.690;2023-12-20T11:43:31;6.20;99.90
64634;DHT22;51043;52.406;9.690;2023-12-20T11:46:03;6.00;99.90
64634;DHT22;51043;52.406;9.690;2023-12-20T11:48:34;5.80;99.90
64634;DHT22;51043;52.406;9.690;2023-12-20T11:51:08;5.70;99.90
64634;DHT22;51043;52.406;9.690;2023-12-20T11:53:36;5.60;99.90
64634;DHT22;51043;52.406;9.690;2023-12-20T11:56:06;5.50;99.90
64634;DHT22;51043;52.406;9.690;2023-12-20T11:58:34;5.50;99.90
64634;DHT22;51043;52.406;9.690;2023-12-20T12:01:03;5.50;99.90
64634;DHT22;51043;52.406;9.690;2023-12-20T12:03:35;5.40;99.90
64634;DHT22;51043;52.406;9.690;2023-12-20T12:06:04;5.40;99.90
64634;DHT22;51043;52.406;9.690;2023-12-20T12:08:32;5.30;99.90
64634;DHT22;51043;52.406;9.690;2023-12-20T12:11:00;5.30;99.90
64634;DHT22;51043;52.406;9.690;2023-12-20T12:13:29;5.20;99.90
64634;DHT22;51043;52.406;9.690;2023-12-20T12:15:57;5.20;99.90
64634;DHT22;51043;52.406;9.690;2023-12-20T12:18:26;5.30;99.90
64634;DHT22;51043;52.406;9.690;2023-12-20T12:21:03;5.30;99.90
64634;DHT22;51043;52.406;9.690;2023-12-20T12:23:32;5.30;99.90
64634;DHT22;51043;52.406;9.690;2023-12-20T12:26:03;5.30;99.90
64634;DHT22;51043;52.406;9.690;2023-12-20T12:28:34;5.40;99.90
64634;DHT22;51043;52.406;9.690;2023-12-20T12:31:02;5.40;99.90
64634;DHT22;51043;52.406;9.690;2023-12-20T12:33:31;5.50;99.90
64634;DHT22;51043;52.406;9.690;2023-12-20T12:36:02;5.50;99.90
64634;DHT22;51043;52.406;9.690;2023-12-20T12:38:33;5.60;99.90
64634;DHT22;51043;52.406;9.690;2023-12-20T12:41:02;5.50;99.90
64634;DHT22;51043;52.406;9.690;2023-12-20T12:43:30;5.40;99.90
64634;DHT22;51043;52.406;9.690;2023-12-20T12:46:00;5.30;99.90
64634;DHT22;51043;52.406;9.690;2023-12-20T12:48:28;5.40;99.90
64634;DHT22;51043;52.406;9.690;2023-12-20T12:50:56;5.50;99.90
64634;DHT22;51043;52.406;9.690;2023-12-20T12:53:27;5.50;99.90
64634;DHT22;51043;52.406;9.690;2023-12-20T12:55:55;5.50;99.90
64634;DHT22;51043;52.406;9.690;2023-12-20T12:58:23;5.60;99.90
64634;DHT22;51043;52.406;9.690;2023-12-20T13:00:52;5.60;99.90
64634;DHT22;51043;52.406;9.690;2023-12-20T13:03:20;5.70;99.90
64634;DHT22;51043;52.406;9.690;2023-12-20T13:05:49;5.50;99.90
64634;DHT22;51043;52.406;9.690;2023-12-20T13:08:20;5.40;99.90
64634;DHT22;51043;52.406;9.690;2023-12-20T13:10:50;5.30;99.90
64634;DHT22;51043;52.406;9.690;2023-12-20T13:13:20;5.20;99.90
64634;DHT22;51043;52.406;9.690;2023-12-20T13:15:48;5.20;99.90
64634;DHT22;51043;52.406;9.690;2023-12-20T13:18:22;5.20;99.90
64634;DHT22;51043;52.406;9.690;2023-12-20T13:20:52;5.30;99.90
64634;DHT22;51043;52.406;9.690;2023-12-20T13:23:20;5.40;99.90
64634;DHT22;51043;52.406;9.690;2023-12-20T13:25:50;5.40;99.90
64634;DHT22;51043;52.406;9.690;2023-12-20T13:28:19;5.40;99.90
64634;DHT22;51043;52.406;9.690;2023-12-20T13:30:48;5.40;99.90
64634;DHT22;51043;52.406;9.690;2023-12-20T13:33:16;5.50;99.90
64634;DHT22;51043;52.406;9.690;2023-12-20T13:35:46;5.50;99.90
64634;DHT22;51043;52.406;9.690;2023-12-20T13:38:14;5.50;99.90
64634;DHT22;51043;52.406;9.690;2023-12-20T13:40:42;5.60;99.90
64634;DHT22;51043;52.406;9.690;2023-12-20T13:43:11;5.60;99.90
64634;DHT22;51043;52.406;9.690;2023-12-20T13:45:40;5.60;99.90
64634;DHT22;51043;52.406;9.690;2023-12-20T13:48:08;5.70;99.90
64634;DHT22;51043;52.406;9.690;2023-12-20T13:50:36;5.70;99.90
64634;DHT22;51043;52.406;9.690;2023-12-20T13:53:04;5.60;99.90
64634;DHT22;51043;52.406;9.690;2023-12-20T13:55:33;5.70;99.90
64634;DHT22;51043;52.406;9.690;2023-12-20T13:58:05;5.70;99.90
64634;DHT22;51043;52.406;9.690;2023-12-20T14:00:34;5.70;99.90
64634;DHT22;51043;52.406;9.690;2023-12-20T14:03:04;5.70;99.90
64634;DHT22;51043;52.406;9.690;2023-12-20T14:05:32;5.70;99.90
64634;DHT22;51043;52.406;9.690;2023-12-20T14:08:01;5.70;99.90
64634;DHT22;51043;52.406;9.690;2023-12-20T14:10:31;5.70;99.90
64634;DHT22;51043;52.406;9.690;2023-12-20T14:12:59;5.70;99.90
64634;DHT22;51043;52.406;9.690;2023-12-20T14:15:27;5.70;99.90
64634;DHT22;51043;52.406;9.690;2023-12-20T14:17:56;5.70;99.90
64634;DHT22;51043;52.406;9.690;2023-12-20T14:20:25;5.80;99.90
64634;DHT22;51043;52.406;9.690;2023-12-20T14:22:53;5.80;99.90
64634;DHT22;51043;52.406;9.690;2023-12-20T14:25:22;5.90;99.90
64634;DHT22;51043;52.406;9.690;2023-12-20T14:27:50;5.80;99.90
64634;DHT22;51043;52.406;9.690;2023-12-20T14:30:19;5.90;99.90
64634;DHT22;51043;52.406;9.690;2023-12-20T14:32:50;5.90;99.90
64634;DHT22;51043;52.406;9.690;2023-12-20T14:35:19;5.90;99.90
64634;DHT22;51043;52.406;9.690;2023-12-20T14:37:49;5.90;99.90
64634;DHT22;51043;52.406;9.690;2023-12-20T14:40:18;5.90;99.90
64634;DHT22;51043;52.406;9.690;2023-12-20T14:42:48;5.90;99.90
64634;DHT22;51043;52.406;9.690;2023-12-20T14:45:17;5.90;99.90
64634;DHT22;51043;52.406;9.690;2023-12-20T14:47:47;5.90;99.90
64634;DHT22;51043;52.406;9.690;2023-12-20T14:50:18;6.00;99.90
64634;DHT22;51043;52.406;9.690;2023-12-20T14:52:47;6.00;99.90
64634;DHT22;51043;52.406;9.690;2023-12-20T14:55:17;5.90;99.90
64634;DHT22;51043;52.406;9.690;2023-12-20T14:57:46;5.90;99.90
64634;DHT22;51043;52.406;9.690;2023-12-20T15:00:17;5.90;99.90
64634;DHT22;51043;52.406;9.690;2023-12-20T15:02:47;5.90;99.90
64634;DHT22;51043;52.406;9.690;2023-12-20T15:05:16;5.90;99.90
64634;DHT22;51043;52.406;9.690;2023-12-20T15:07:46;5.90;99.90
64634;DHT22;51043;52.406;9.690;2023-12-20T15:10:15;5.90;99.90
64634;DHT22;51043;52.406;9.690;2023-12-20T15:12:45;5.90;99.90
64634;DHT22;51043;52.406;9.690;2023-12-20T15:15:13;5.90;99.90
64634;DHT22;51043;52.406;9.690;2023-12-20T15:17:41;5.90;99.90
64634;DHT22;51043;52.406;9.690;2023-12-20T15:20:10;5.90;99.90
64634;DHT22;51043;52.406;9.690;2023-12-20T15:22:38;5.90;99.90
64634;DHT22;51043;52.406;9.690;2023-12-20T15:25:09;5.90;99.90
64634;DHT22;51043;52.406;9.690;2023-12-20T15:27:39;5.90;99.90
64634;DHT22;51043;52.406;9.690;2023-12-20T15:30:08;5.80;99.90
64634;DHT22;51043;52.406;9.690;2023-12-20T15:32:36;5.90;99.90
64634;DHT22;51043;52.406;9.690;2023-12-20T15:35:06;5.90;99.90
64634;DHT22;51043;52.406;9.690;2023-12-20T15:37:34;5.90;99.90
64634;DHT22;51043;52.406;9.690;2023-12-20T15:40:02;5.90;99.90
64634;DHT22;51043;52.406;9.690;2023-12-20T15:42:32;5.90;99.90
64634;DHT22;51043;52.406;9.690;2023-12-20T15:45:03;5.90;99.90
64634;DHT22;51043;52.406;9.690;2023-12-20T15:47:34;5.90;99.90
64634;DHT22;51043;52.406;9.690;2023-12-20T15:50:04;5.90;99.90
64634;DHT22;51043;52.406;9.690;2023-12-20T15:52:33;6.00;99.90
64634;DHT22;51043;52.406;9.690;2023-12-20T15:55:04;6.00;99.90
64634;DHT22;51043;52.406;9.690;2023-12-20T15:57:33;5.90;99.90